sensor_id;sensor_type;location;lat;lon;timestamp;noise_LAeq;noise_LA_min;noise_LA_max;noise_LA01;noise_LA95
71628;Laerm;59477;52.374;9.916;2022-10-16T00:00:39;39.64;31.56;47.58;;
71628;Laerm;59477;52.374;9.916;2022-10-16T00:02:39;37.89;32.16;47.29;;
71628;Laerm;59477;52.374;9.916;2022-10-16T00:04:40;42.81;32.61;52.55;;
71628;Laerm;59477;52.374;9.916;2022-10-16T00:06:40;42.26;31.30;51.15;;
71628;Laerm;59477;52.374;9.916;2022-10-16T00:08:41;34.58;31.15;41.74;;
71628;Laerm;59477;52.374;9.916;2022-10-16T00:10:42;41.78;32.48;54.99;;
71628;Laerm;59477;52.374;9.916;2022-10-16T00:12:42;45.45;32.88;54.48;;
71628;Laerm;59477;52.374;9.916;2022-10-16T00:14:43;37.80;31.16;53.62;;
71628;Laerm;59477;52.374;9.916;2022-10-16T00:16:44;36.34;31.36;49.01;;
71628;Laerm;59477;52.374;9.916;2022-10-16T00:18:45;49.47;36.15;58.09;;
71628;Laerm;59477;52.374;9.916;2022-10-16T00:20:45;37.77;31.05;48.82;;
71628;Laerm;59477;52.374;9.916;2022-10-16T00:22:46;34.46;31.04;39.20;;
71628;Laerm;59477;52.374;9.916;2022-10-16T00:24:46;33.88;30.56;39.52;;
71628;Laerm;59477;52.374;9.916;2022-10-16T00:26:48;36.07;31.92;45.07;;
71628;Laerm;59477;52.374;9.916;2022-10-16T00:28:49;34.86;30.20;43.20;;
71628;Laerm;59477;52.374;9.916;2022-10-16T00:30:50;34.39;30.36;42.54;;
71628;Laerm;59477;52.374;9.916;2022-10-16T00:32:51;34.29;30.90;40.07;;
71628;Laerm;59477;52.374;9.916;2022-10-16T00:34:51;36.72;31.42;43.34;;
71628;Laerm;59477;52.374;9.916;2022-10-16T00:36:54;36.33;30.83;45.19;;
71628;Laerm;59477;52.374;9.916;2022-10-16T00:38:55;41.62;33.43;48.77;;
71628;Laerm;59477;52.374;9.916;2022-10-16T00:40:58;35.01;31.43;40.48;;
71628;Laerm;59477;52.374;9.916;2022-10-16T00:42:58;36.11;32.56;41.87;;
71628;Laerm;59477;52.374;9.916;2022-10-16T00:44:59;38.81;32.40;46.86;;
71628;Laerm;59477;52.374;9.916;2022-10-16T00:46:59;36.04;32.58;41.80;;
71628;Laerm;59477;52.374;9.916;2022-10-16T00:49:10;37.95;31.56;48.09;;
71628;Laerm;59477;52.374;9.916;2022-10-16T00:51:12;34.35;30.92;41.08;;
71628;Laerm;59477;52.374;9.916;2022-10-16T00:53:12;34.78;31.26;41.48;;
71628;Laerm;59477;52.374;9.916;2022-10-16T00:55:13;38.27;32.28;45.74;;
71628;Laerm;59477;52.374;9.916;2022-10-16T00:57:14;37.01;31.29;46.84;;
71628;Laerm;59477;52.374;9.916;2022-10-16T00:59:19;37.47;31.07;47.39;;
71628;Laerm;59477;52.374;9.916;2022-10-16T01:01:20;36.47;33.22;41.92;;
71628;Laerm;59477;52.374;9.916;2022-10-16T01:03:22;34.67;31.60;38.92;;
71628;Laerm;59477;52.374;9.916;2022-10-16T01:05:23;34.21;31.20;40.28;;
71628;Laerm;59477;52.374;9.916;2022-10-16T01:11:37;35.90;31.90;42.47;;
71628;Laerm;59477;52.374;9.916;2022-10-16T01:13:41;41.94;32.87;54.62;;
71628;Laerm;59477;52.374;9.916;2022-10-16T01:17:45;40.06;33.81;50.79;;
71628;Laerm;59477;52.374;9.916;2022-10-16T01:21:52;35.87;31.87;45.79;;
71628;Laerm;59477;52.374;9.916;2022-10-16T01:28:34;34.60;31.17;42.49;;
71628;Laerm;59477;52.374;9.916;2022-10-16T01:30:36;40.73;33.69;47.01;;
71628;Laerm;59477;52.374;9.916;2022-10-16T01:32:40;39.63;32.74;47.18;;
71628;Laerm;59477;52.374;9.916;2022-10-16T01:37:02;37.34;33.10;45.42;;
71628;Laerm;59477;52.374;9.916;2022-10-16T01:39:04;35.76;32.34;42.69;;
71628;Laerm;59477;52.374;9.916;2022-10-16T01:41:11;34.67;32.42;38.10;;
71628;Laerm;59477;52.374;9.916;2022-10-16T01:43:14;35.36;31.81;49.25;;
71628;Laerm;59477;52.374;9.916;2022-10-16T01:45:16;35.72;32.76;48.97;;
71628;Laerm;59477;52.374;9.916;2022-10-16T01:47:19;35.13;32.52;48.70;;
71628;Laerm;59477;52.374;9.916;2022-10-16T01:49:23;34.71;32.36;49.57;;
71628;Laerm;59477;52.374;9.916;2022-10-16T01:51:25;40.10;33.68;50.48;;
71628;Laerm;59477;52.374;9.916;2022-10-16T01:53:26;35.62;32.87;49.23;;
71628;Laerm;59477;52.374;9.916;2022-10-16T01:55:34;36.76;33.11;50.03;;
71628;Laerm;59477;52.374;9.916;2022-10-16T01:57:37;36.83;33.67;49.42;;
71628;Laerm;59477;52.374;9.916;2022-10-16T01:59:44;35.31;32.58;49.55;;
71628;Laerm;59477;52.374;9.916;2022-10-16T02:01:50;36.45;33.02;49.77;;
71628;Laerm;59477;52.374;9.916;2022-10-16T02:03:53;36.01;33.47;49.46;;
71628;Laerm;59477;52.374;9.916;2022-10-16T02:05:56;36.21;33.36;49.45;;
71628;Laerm;59477;52.374;9.916;2022-10-16T02:07:57;36.41;33.27;48.94;;
71628;Laerm;59477;52.374;9.916;2022-10-16T02:09:59;34.62;32.28;38.54;;
71628;Laerm;59477;52.374;9.916;2022-10-16T02:12:01;34.14;31.92;48.79;;
71628;Laerm;59477;52.374;9.916;2022-10-16T02:14:04;33.57;31.63;36.61;;
71628;Laerm;59477;52.374;9.916;2022-10-16T02:16:06;36.35;33.17;43.45;;
71628;Laerm;59477;52.374;9.916;2022-10-16T02:18:06;36.75;33.04;42.39;;
71628;Laerm;59477;52.374;9.916;2022-10-16T02:20:08;37.24;34.02;49.03;;
71628;Laerm;59477;52.374;9.916;2022-10-16T02:22:09;37.34;32.49;43.75;;
71628;Laerm;59477;52.374;9.916;2022-10-16T02:26:35;38.17;33.19;45.83;;
71628;Laerm;59477;52.374;9.916;2022-10-16T02:28:40;34.81;32.29;41.51;;
71628;Laerm;59477;52.374;9.916;2022-10-16T02:31:04;37.02;33.10;43.01;;
71628;Laerm;59477;52.374;9.916;2022-10-16T02:33:04;34.73;32.32;48.70;;
71628;Laerm;59477;52.374;9.916;2022-10-16T02:35:05;33.72;31.49;38.27;;
71628;Laerm;59477;52.374;9.916;2022-10-16T02:37:07;37.11;31.63;48.82;;
71628;Laerm;59477;52.374;9.916;2022-10-16T02:39:08;33.97;31.59;38.52;;
71628;Laerm;59477;52.374;9.916;2022-10-16T02:41:09;36.71;33.02;45.93;;
71628;Laerm;59477;52.374;9.916;2022-10-16T02:43:10;36.81;32.44;49.16;;
71628;Laerm;59477;52.374;9.916;2022-10-16T02:45:12;35.83;32.06;44.95;;
71628;Laerm;59477;52.374;9.916;2022-10-16T02:47:12;34.28;31.64;38.74;;
71628;Laerm;59477;52.374;9.916;2022-10-16T02:49:13;34.32;31.65;38.38;;
71628;Laerm;59477;52.374;9.916;2022-10-16T02:51:13;35.65;32.38;45.38;;
71628;Laerm;59477;52.374;9.916;2022-10-16T02:53:14;38.63;33.49;44.94;;
71628;Laerm;59477;52.374;9.916;2022-10-16T02:55:14;37.52;32.56;45.58;;
71628;Laerm;59477;52.374;9.916;2022-10-16T02:57:15;36.20;31.79;47.89;;
71628;Laerm;59477;52.374;9.916;2022-10-16T02:59:16;38.50;33.60;50.46;;
71628;Laerm;59477;52.374;9.916;2022-10-16T03:01:16;36.57;32.70;42.78;;
71628;Laerm;59477;52.374;9.916;2022-10-16T03:03:17;38.54;32.90;52.25;;
71628;Laerm;59477;52.374;9.916;2022-10-16T03:05:17;39.07;31.82;50.21;;
71628;Laerm;59477;52.374;9.916;2022-10-16T03:07:18;36.75;31.74;43.90;;
71628;Laerm;59477;52.374;9.916;2022-10-16T03:09:19;37.35;32.81;50.90;;
71628;Laerm;59477;52.374;9.916;2022-10-16T03:11:19;38.17;32.09;51.13;;
71628;Laerm;59477;52.374;9.916;2022-10-16T03:13:20;39.62;31.72;46.46;;
71628;Laerm;59477;52.374;9.916;2022-10-16T03:15:20;41.43;32.96;51.25;;
71628;Laerm;59477;52.374;9.916;2022-10-16T03:17:22;38.80;31.96;48.29;;
71628;Laerm;59477;52.374;9.916;2022-10-16T03:19:22;37.49;32.58;44.56;;
71628;Laerm;59477;52.374;9.916;2022-10-16T03:21:23;37.51;33.09;44.42;;
71628;Laerm;59477;52.374;9.916;2022-10-16T03:23:23;36.61;31.72;46.33;;
71628;Laerm;59477;52.374;9.916;2022-10-16T03:25:24;38.95;32.15;52.11;;
71628;Laerm;59477;52.374;9.916;2022-10-16T03:27:25;39.12;33.64;45.67;;
71628;Laerm;59477;52.374;9.916;2022-10-16T03:29:25;40.35;32.03;49.64;;
71628;Laerm;59477;52.374;9.916;2022-10-16T03:31:26;34.31;31.28;42.89;;
71628;Laerm;59477;52.374;9.916;2022-10-16T03:33:26;38.01;32.11;45.86;;
71628;Laerm;59477;52.374;9.916;2022-10-16T03:35:27;40.05;32.82;46.38;;
71628;Laerm;59477;52.374;9.916;2022-10-16T03:37:27;39.00;32.32;47.60;;
71628;Laerm;59477;52.374;9.916;2022-10-16T03:39:28;35.69;32.19;45.39;;
71628;Laerm;59477;52.374;9.916;2022-10-16T03:41:28;37.29;32.42;46.63;;
71628;Laerm;59477;52.374;9.916;2022-10-16T03:43:29;34.19;31.25;39.58;;
71628;Laerm;59477;52.374;9.916;2022-10-16T03:45:29;36.56;32.02;44.99;;
71628;Laerm;59477;52.374;9.916;2022-10-16T03:47:30;37.98;32.08;46.34;;
71628;Laerm;59477;52.374;9.916;2022-10-16T03:49:33;36.64;31.78;46.12;;
71628;Laerm;59477;52.374;9.916;2022-10-16T03:51:33;35.52;31.79;41.87;;
71628;Laerm;59477;52.374;9.916;2022-10-16T03:53:34;38.94;33.05;46.48;;
71628;Laerm;59477;52.374;9.916;2022-10-16T03:55:34;54.15;33.05;68.79;;
71628;Laerm;59477;52.374;9.916;2022-10-16T03:57:35;42.70;31.44;57.34;;
71628;Laerm;59477;52.374;9.916;2022-10-16T03:59:35;37.25;31.81;46.40;;
71628;Laerm;59477;52.374;9.916;2022-10-16T04:01:36;37.09;31.88;47.34;;
71628;Laerm;59477;52.374;9.916;2022-10-16T04:03:36;36.48;31.42;44.32;;
71628;Laerm;59477;52.374;9.916;2022-10-16T04:05:37;38.67;33.04;46.87;;
71628;Laerm;59477;52.374;9.916;2022-10-16T04:07:38;40.98;32.12;52.49;;
71628;Laerm;59477;52.374;9.916;2022-10-16T04:09:38;36.58;32.89;41.84;;
71628;Laerm;59477;52.374;9.916;2022-10-16T04:11:39;39.63;33.64;46.42;;
71628;Laerm;59477;52.374;9.916;2022-10-16T04:13:39;37.00;32.45;44.40;;
71628;Laerm;59477;52.374;9.916;2022-10-16T04:15:40;36.47;32.00;43.78;;
71628;Laerm;59477;52.374;9.916;2022-10-16T04:17:41;37.19;31.92;43.74;;
71628;Laerm;59477;52.374;9.916;2022-10-16T04:19:41;37.21;32.42;47.71;;
71628;Laerm;59477;52.374;9.916;2022-10-16T04:21:42;41.49;33.39;48.90;;
71628;Laerm;59477;52.374;9.916;2022-10-16T04:23:42;37.62;33.07;45.35;;
71628;Laerm;59477;52.374;9.916;2022-10-16T04:25:43;38.35;33.04;47.75;;
71628;Laerm;59477;52.374;9.916;2022-10-16T04:27:43;38.05;33.14;49.87;;
71628;Laerm;59477;52.374;9.916;2022-10-16T04:29:44;36.79;32.21;50.01;;
71628;Laerm;59477;52.374;9.916;2022-10-16T04:31:44;35.81;31.44;50.18;;
71628;Laerm;59477;52.374;9.916;2022-10-16T04:33:45;35.87;32.52;49.95;;
71628;Laerm;59477;52.374;9.916;2022-10-16T04:35:48;37.15;33.08;50.16;;
71628;Laerm;59477;52.374;9.916;2022-10-16T04:37:49;39.18;32.62;51.00;;
71628;Laerm;59477;52.374;9.916;2022-10-16T04:39:50;36.62;32.38;50.79;;
71628;Laerm;59477;52.374;9.916;2022-10-16T04:41:51;38.45;32.79;52.73;;
71628;Laerm;59477;52.374;9.916;2022-10-16T04:43:51;35.71;32.53;49.78;;
71628;Laerm;59477;52.374;9.916;2022-10-16T04:45:52;40.28;33.39;51.06;;
71628;Laerm;59477;52.374;9.916;2022-10-16T04:47:56;41.50;34.43;50.12;;
71628;Laerm;59477;52.374;9.916;2022-10-16T04:49:56;35.94;32.46;50.11;;
71628;Laerm;59477;52.374;9.916;2022-10-16T04:51:57;38.67;32.21;54.33;;
71628;Laerm;59477;52.374;9.916;2022-10-16T04:53:57;35.53;32.39;49.69;;
71628;Laerm;59477;52.374;9.916;2022-10-16T04:55:58;36.49;32.05;50.07;;
71628;Laerm;59477;52.374;9.916;2022-10-16T04:57:59;38.51;32.40;54.39;;
71628;Laerm;59477;52.374;9.916;2022-10-16T04:59:59;39.10;32.48;48.20;;
71628;Laerm;59477;52.374;9.916;2022-10-16T05:02:00;42.80;32.53;55.28;;
71628;Laerm;59477;52.374;9.916;2022-10-16T05:04:00;44.91;33.68;61.05;;
71628;Laerm;59477;52.374;9.916;2022-10-16T05:06:01;44.34;32.91;62.21;;
71628;Laerm;59477;52.374;9.916;2022-10-16T05:08:02;41.91;34.08;58.94;;
71628;Laerm;59477;52.374;9.916;2022-10-16T05:10:03;40.02;33.06;54.82;;
71628;Laerm;59477;52.374;9.916;2022-10-16T05:12:04;36.84;32.90;46.11;;
71628;Laerm;59477;52.374;9.916;2022-10-16T05:14:04;37.51;33.24;53.27;;
71628;Laerm;59477;52.374;9.916;2022-10-16T05:16:05;36.54;33.45;50.21;;
71628;Laerm;59477;52.374;9.916;2022-10-16T05:18:13;39.15;33.32;56.44;;
71628;Laerm;59477;52.374;9.916;2022-10-16T05:20:13;43.32;35.61;62.27;;
71628;Laerm;59477;52.374;9.916;2022-10-16T05:22:14;44.03;33.64;60.88;;
71628;Laerm;59477;52.374;9.916;2022-10-16T05:24:14;41.77;32.94;53.19;;
71628;Laerm;59477;52.374;9.916;2022-10-16T05:26:15;39.29;33.57;51.28;;
71628;Laerm;59477;52.374;9.916;2022-10-16T05:28:15;37.01;33.19;54.75;;
71628;Laerm;59477;52.374;9.916;2022-10-16T05:30:16;46.18;33.00;70.08;;
71628;Laerm;59477;52.374;9.916;2022-10-16T05:32:17;46.78;32.31;62.74;;
71628;Laerm;59477;52.374;9.916;2022-10-16T05:34:19;44.00;33.87;60.62;;
71628;Laerm;59477;52.374;9.916;2022-10-16T05:36:19;38.38;33.12;47.96;;
71628;Laerm;59477;52.374;9.916;2022-10-16T05:38:20;37.60;33.10;53.83;;
71628;Laerm;59477;52.374;9.916;2022-10-16T05:40:20;38.24;32.79;51.00;;
71628;Laerm;59477;52.374;9.916;2022-10-16T05:42:21;38.44;34.16;52.12;;
71628;Laerm;59477;52.374;9.916;2022-10-16T05:44:21;38.42;33.76;52.89;;
71628;Laerm;59477;52.374;9.916;2022-10-16T05:46:22;42.68;33.44;61.24;;
71628;Laerm;59477;52.374;9.916;2022-10-16T05:48:22;43.74;33.65;63.56;;
71628;Laerm;59477;52.374;9.916;2022-10-16T05:50:23;42.53;34.01;59.30;;
71628;Laerm;59477;52.374;9.916;2022-10-16T05:52:24;45.26;33.42;65.39;;
71628;Laerm;59477;52.374;9.916;2022-10-16T05:54:24;43.58;33.57;62.18;;
71628;Laerm;59477;52.374;9.916;2022-10-16T05:56:25;41.37;33.61;59.86;;
71628;Laerm;59477;52.374;9.916;2022-10-16T05:58:28;46.80;33.64;71.45;;
71628;Laerm;59477;52.374;9.916;2022-10-16T06:00:32;38.89;33.74;53.91;;
71628;Laerm;59477;52.374;9.916;2022-10-16T06:02:32;39.10;32.75;52.62;;
71628;Laerm;59477;52.374;9.916;2022-10-16T06:04:33;38.60;33.24;53.55;;
71628;Laerm;59477;52.374;9.916;2022-10-16T06:06:33;40.90;33.85;60.09;;
71628;Laerm;59477;52.374;9.916;2022-10-16T06:08:34;41.98;33.73;56.89;;
71628;Laerm;59477;52.374;9.916;2022-10-16T06:10:34;45.97;36.40;63.07;;
71628;Laerm;59477;52.374;9.916;2022-10-16T06:12:35;40.99;36.12;51.66;;
71628;Laerm;59477;52.374;9.916;2022-10-16T06:14:35;52.85;35.51;64.45;;
71628;Laerm;59477;52.374;9.916;2022-10-16T06:16:36;38.69;35.15;47.13;;
71628;Laerm;59477;52.374;9.916;2022-10-16T06:18:37;41.06;35.95;60.25;;
71628;Laerm;59477;52.374;9.916;2022-10-16T06:20:38;44.07;36.88;57.82;;
71628;Laerm;59477;52.374;9.916;2022-10-16T06:22:39;45.89;36.69;64.39;;
71628;Laerm;59477;52.374;9.916;2022-10-16T06:24:39;45.47;35.43;59.80;;
71628;Laerm;59477;52.374;9.916;2022-10-16T06:26:40;48.84;35.52;66.99;;
71628;Laerm;59477;52.374;9.916;2022-10-16T06:28:43;41.93;35.32;64.02;;
71628;Laerm;59477;52.374;9.916;2022-10-16T06:30:43;44.90;36.29;54.66;;
71628;Laerm;59477;52.374;9.916;2022-10-16T06:32:44;42.30;35.88;52.91;;
71628;Laerm;59477;52.374;9.916;2022-10-16T06:34:44;42.19;37.27;56.74;;
71628;Laerm;59477;52.374;9.916;2022-10-16T06:36:45;41.62;36.50;49.51;;
71628;Laerm;59477;52.374;9.916;2022-10-16T06:38:46;41.13;36.01;53.15;;
71628;Laerm;59477;52.374;9.916;2022-10-16T06:40:46;40.85;35.92;48.52;;
71628;Laerm;59477;52.374;9.916;2022-10-16T06:42:48;42.45;36.50;50.15;;
71628;Laerm;59477;52.374;9.916;2022-10-16T06:44:49;42.22;35.24;57.95;;
71628;Laerm;59477;52.374;9.916;2022-10-16T06:46:49;40.26;35.04;51.24;;
71628;Laerm;59477;52.374;9.916;2022-10-16T06:48:50;41.01;36.19;46.47;;
71628;Laerm;59477;52.374;9.916;2022-10-16T06:51:13;44.45;37.83;63.65;;
71628;Laerm;59477;52.374;9.916;2022-10-16T06:53:11;43.73;36.97;56.21;;
71628;Laerm;59477;52.374;9.916;2022-10-16T06:55:12;42.88;34.94;67.34;;
71628;Laerm;59477;52.374;9.916;2022-10-16T06:57:12;40.83;34.95;52.43;;
71628;Laerm;59477;52.374;9.916;2022-10-16T06:59:13;40.85;34.70;54.92;;
71628;Laerm;59477;52.374;9.916;2022-10-16T07:01:13;45.47;37.23;58.54;;
71628;Laerm;59477;52.374;9.916;2022-10-16T07:03:14;41.22;37.16;51.23;;
71628;Laerm;59477;52.374;9.916;2022-10-16T07:05:15;41.42;37.05;52.44;;
71628;Laerm;59477;52.374;9.916;2022-10-16T07:07:15;44.82;37.82;67.72;;
71628;Laerm;59477;52.374;9.916;2022-10-16T07:09:16;41.81;37.46;53.39;;
71628;Laerm;59477;52.374;9.916;2022-10-16T07:11:21;44.19;38.30;58.27;;
71628;Laerm;59477;52.374;9.916;2022-10-16T07:13:21;43.45;37.85;57.67;;
71628;Laerm;59477;52.374;9.916;2022-10-16T07:15:22;44.32;36.35;65.61;;
71628;Laerm;59477;52.374;9.916;2022-10-16T07:17:22;40.89;35.70;55.16;;
71628;Laerm;59477;52.374;9.916;2022-10-16T07:19:23;41.54;37.02;54.54;;
71628;Laerm;59477;52.374;9.916;2022-10-16T07:21:24;44.55;38.13;62.29;;
71628;Laerm;59477;52.374;9.916;2022-10-16T07:23:25;43.13;36.72;60.47;;
71628;Laerm;59477;52.374;9.916;2022-10-16T07:25:26;43.67;38.04;57.16;;
71628;Laerm;59477;52.374;9.916;2022-10-16T07:27:27;46.15;37.04;68.18;;
71628;Laerm;59477;52.374;9.916;2022-10-16T07:29:28;42.94;37.55;56.63;;
71628;Laerm;59477;52.374;9.916;2022-10-16T07:31:28;42.46;37.81;51.42;;
71628;Laerm;59477;52.374;9.916;2022-10-16T07:33:29;43.76;36.12;65.06;;
71628;Laerm;59477;52.374;9.916;2022-10-16T07:35:30;41.33;36.39;53.66;;
71628;Laerm;59477;52.374;9.916;2022-10-16T07:37:30;41.25;37.14;50.04;;
71628;Laerm;59477;52.374;9.916;2022-10-16T07:39:31;42.32;37.06;58.79;;
71628;Laerm;59477;52.374;9.916;2022-10-16T07:41:32;41.91;38.00;46.93;;
71628;Laerm;59477;52.374;9.916;2022-10-16T07:43:36;42.07;37.01;58.43;;
71628;Laerm;59477;52.374;9.916;2022-10-16T07:45:37;39.71;35.30;50.80;;
71628;Laerm;59477;52.374;9.916;2022-10-16T07:47:46;41.76;36.70;54.32;;
71628;Laerm;59477;52.374;9.916;2022-10-16T07:49:46;42.33;37.42;58.77;;
71628;Laerm;59477;52.374;9.916;2022-10-16T07:51:47;42.15;37.19;59.54;;
71628;Laerm;59477;52.374;9.916;2022-10-16T07:53:48;39.42;35.62;47.22;;
71628;Laerm;59477;52.374;9.916;2022-10-16T07:55:48;43.32;36.98;56.94;;
71628;Laerm;59477;52.374;9.916;2022-10-16T07:57:49;41.72;36.54;55.15;;
71628;Laerm;59477;52.374;9.916;2022-10-16T07:59:49;42.28;37.02;57.75;;
71628;Laerm;59477;52.374;9.916;2022-10-16T08:01:50;43.36;36.43;66.20;;
71628;Laerm;59477;52.374;9.916;2022-10-16T08:03:51;42.20;37.28;52.84;;
71628;Laerm;59477;52.374;9.916;2022-10-16T08:05:51;41.10;36.86;53.60;;
71628;Laerm;59477;52.374;9.916;2022-10-16T08:07:52;41.00;37.08;50.38;;
71628;Laerm;59477;52.374;9.916;2022-10-16T08:09:53;42.39;37.14;54.37;;
71628;Laerm;59477;52.374;9.916;2022-10-16T08:11:54;41.65;36.11;55.83;;
71628;Laerm;59477;52.374;9.916;2022-10-16T08:13:54;47.35;36.87;65.57;;
71628;Laerm;59477;52.374;9.916;2022-10-16T08:15:55;43.96;38.44;60.02;;
71628;Laerm;59477;52.374;9.916;2022-10-16T08:18:02;44.03;38.67;62.70;;
71628;Laerm;59477;52.374;9.916;2022-10-16T08:20:03;47.06;39.32;66.43;;
71628;Laerm;59477;52.374;9.916;2022-10-16T08:22:04;46.58;38.43;67.77;;
71628;Laerm;59477;52.374;9.916;2022-10-16T08:24:04;42.75;37.93;66.98;;
71628;Laerm;59477;52.374;9.916;2022-10-16T08:26:06;44.69;37.59;66.79;;
71628;Laerm;59477;52.374;9.916;2022-10-16T08:28:08;44.24;38.59;56.92;;
71628;Laerm;59477;52.374;9.916;2022-10-16T08:30:10;44.74;39.18;55.78;;
71628;Laerm;59477;52.374;9.916;2022-10-16T08:32:11;48.59;39.06;67.61;;
71628;Laerm;59477;52.374;9.916;2022-10-16T08:34:11;44.00;39.03;52.58;;
71628;Laerm;59477;52.374;9.916;2022-10-16T08:36:12;43.56;39.18;50.32;;
71628;Laerm;59477;52.374;9.916;2022-10-16T08:38:13;43.61;39.83;53.98;;
71628;Laerm;59477;52.374;9.916;2022-10-16T08:40:24;43.78;39.31;53.99;;
71628;Laerm;59477;52.374;9.916;2022-10-16T08:42:59;44.31;38.78;59.53;;
71628;Laerm;59477;52.374;9.916;2022-10-16T08:49:31;47.09;39.01;68.16;;
71628;Laerm;59477;52.374;9.916;2022-10-16T08:51:33;44.99;40.11;57.16;;
71628;Laerm;59477;52.374;9.916;2022-10-16T08:53:41;47.69;38.42;67.78;;
71628;Laerm;59477;52.374;9.916;2022-10-16T08:55:45;45.44;39.30;54.42;;
71628;Laerm;59477;52.374;9.916;2022-10-16T08:57:46;44.21;38.31;51.74;;
71628;Laerm;59477;52.374;9.916;2022-10-16T08:59:47;43.58;37.80;59.07;;
71628;Laerm;59477;52.374;9.916;2022-10-16T09:01:49;42.31;37.67;56.85;;
71628;Laerm;59477;52.374;9.916;2022-10-16T09:20:40;47.25;38.96;58.23;;
71628;Laerm;59477;52.374;9.916;2022-10-16T09:22:43;48.47;41.61;58.89;;
71628;Laerm;59477;52.374;9.916;2022-10-16T09:24:44;47.46;39.87;62.42;;
71628;Laerm;59477;52.374;9.916;2022-10-16T09:26:47;48.50;39.23;65.50;;
71628;Laerm;59477;52.374;9.916;2022-10-16T09:28:48;43.07;38.71;50.25;;
71628;Laerm;59477;52.374;9.916;2022-10-16T09:30:48;47.84;39.51;58.97;;
71628;Laerm;59477;52.374;9.916;2022-10-16T09:32:50;44.34;38.96;56.17;;
71628;Laerm;59477;52.374;9.916;2022-10-16T09:34:53;46.51;40.31;62.92;;
71628;Laerm;59477;52.374;9.916;2022-10-16T09:36:56;48.91;37.83;78.56;;
71628;Laerm;59477;52.374;9.916;2022-10-16T09:39:04;43.73;38.08;68.32;;
71628;Laerm;59477;52.374;9.916;2022-10-16T09:41:21;44.64;38.94;51.77;;
71628;Laerm;59477;52.374;9.916;2022-10-16T09:45:24;54.07;41.38;77.67;;
71628;Laerm;59477;52.374;9.916;2022-10-16T09:47:29;53.07;42.14;68.66;;
71628;Laerm;59477;52.374;9.916;2022-10-16T09:49:37;51.24;43.06;63.25;;
71628;Laerm;59477;52.374;9.916;2022-10-16T09:51:47;47.90;40.46;55.76;;
71628;Laerm;59477;52.374;9.916;2022-10-16T09:53:54;48.06;39.65;65.61;;
71628;Laerm;59477;52.374;9.916;2022-10-16T09:56:04;46.48;39.99;53.98;;
71628;Laerm;59477;52.374;9.916;2022-10-16T09:58:16;46.16;40.97;53.93;;
71628;Laerm;59477;52.374;9.916;2022-10-16T10:00:22;43.95;38.80;50.59;;
71628;Laerm;59477;52.374;9.916;2022-10-16T10:02:35;49.98;39.87;63.04;;
71628;Laerm;59477;52.374;9.916;2022-10-16T10:04:39;48.28;42.04;61.55;;
71628;Laerm;59477;52.374;9.916;2022-10-16T10:06:44;46.88;38.72;57.07;;
71628;Laerm;59477;52.374;9.916;2022-10-16T10:08:59;45.25;40.33;52.42;;
71628;Laerm;59477;52.374;9.916;2022-10-16T10:11:00;46.12;39.81;67.47;;
71628;Laerm;59477;52.374;9.916;2022-10-16T10:13:01;49.24;39.58;63.72;;
71628;Laerm;59477;52.374;9.916;2022-10-16T10:15:10;48.40;42.21;58.64;;
71628;Laerm;59477;52.374;9.916;2022-10-16T10:17:29;45.76;40.57;52.16;;
71628;Laerm;59477;52.374;9.916;2022-10-16T10:19:36;45.05;40.32;55.68;;
71628;Laerm;59477;52.374;9.916;2022-10-16T10:21:37;48.66;40.49;71.77;;
71628;Laerm;59477;52.374;9.916;2022-10-16T10:23:38;47.58;40.43;63.97;;
71628;Laerm;59477;52.374;9.916;2022-10-16T10:33:54;50.26;42.82;62.92;;
71628;Laerm;59477;52.374;9.916;2022-10-16T10:46:56;47.81;41.36;54.59;;
71628;Laerm;59477;52.374;9.916;2022-10-16T10:49:04;48.32;41.01;56.18;;
71628;Laerm;59477;52.374;9.916;2022-10-16T10:51:09;46.66;40.75;52.28;;
71628;Laerm;59477;52.374;9.916;2022-10-16T10:53:21;47.17;40.81;58.10;;
71628;Laerm;59477;52.374;9.916;2022-10-16T10:55:31;50.39;43.39;58.18;;
71628;Laerm;59477;52.374;9.916;2022-10-16T10:57:36;46.51;41.05;52.64;;
71628;Laerm;59477;52.374;9.916;2022-10-16T11:06:12;53.70;42.25;78.38;;
71628;Laerm;59477;52.374;9.916;2022-10-16T11:08:22;50.48;45.08;57.29;;
71628;Laerm;59477;52.374;9.916;2022-10-16T11:10:33;49.14;43.85;65.93;;
71628;Laerm;59477;52.374;9.916;2022-10-16T11:12:39;53.74;42.17;63.85;;
71628;Laerm;59477;52.374;9.916;2022-10-16T11:15:00;48.11;41.85;54.82;;
71628;Laerm;59477;52.374;9.916;2022-10-16T11:17:12;51.87;45.40;64.34;;
71628;Laerm;59477;52.374;9.916;2022-10-16T11:19:21;49.86;41.64;59.23;;
71628;Laerm;59477;52.374;9.916;2022-10-16T11:21:25;48.73;42.30;54.94;;
71628;Laerm;59477;52.374;9.916;2022-10-16T11:23:29;47.21;42.01;54.17;;
71628;Laerm;59477;52.374;9.916;2022-10-16T11:25:32;47.91;42.90;53.94;;
71628;Laerm;59477;52.374;9.916;2022-10-16T11:27:38;46.58;40.85;53.44;;
71628;Laerm;59477;52.374;9.916;2022-10-16T11:29:45;46.12;40.68;52.35;;
71628;Laerm;59477;52.374;9.916;2022-10-16T11:31:52;47.20;39.91;55.78;;
71628;Laerm;59477;52.374;9.916;2022-10-16T11:34:08;47.53;41.98;53.29;;
71628;Laerm;59477;52.374;9.916;2022-10-16T11:36:17;48.05;41.27;56.88;;
71628;Laerm;59477;52.374;9.916;2022-10-16T11:38:30;45.37;40.95;57.60;;
71628;Laerm;59477;52.374;9.916;2022-10-16T11:40:33;45.82;40.50;58.59;;
71628;Laerm;59477;52.374;9.916;2022-10-16T11:42:37;46.38;40.07;53.20;;
71628;Laerm;59477;52.374;9.916;2022-10-16T11:46:58;48.74;43.13;55.07;;
71628;Laerm;59477;52.374;9.916;2022-10-16T11:49:02;51.92;44.34;61.25;;
71628;Laerm;59477;52.374;9.916;2022-10-16T11:55:25;51.84;42.16;61.45;;
71628;Laerm;59477;52.374;9.916;2022-10-16T11:57:27;48.05;42.13;53.92;;
71628;Laerm;59477;52.374;9.916;2022-10-16T12:01:33;50.77;43.16;61.26;;
71628;Laerm;59477;52.374;9.916;2022-10-16T12:05:53;53.04;41.59;80.24;;
71628;Laerm;59477;52.374;9.916;2022-10-16T12:08:03;55.67;40.57;84.72;;
71628;Laerm;59477;52.374;9.916;2022-10-16T12:10:26;52.38;42.81;69.87;;
71628;Laerm;59477;52.374;9.916;2022-10-16T12:12:37;49.75;40.83;65.45;;
71628;Laerm;59477;52.374;9.916;2022-10-16T12:14:38;52.89;41.62;77.99;;
71628;Laerm;59477;52.374;9.916;2022-10-16T12:16:55;49.09;39.36;72.16;;
71628;Laerm;59477;52.374;9.916;2022-10-16T12:19:08;54.50;41.80;82.77;;
71628;Laerm;59477;52.374;9.916;2022-10-16T12:21:11;47.19;39.61;66.97;;
71628;Laerm;59477;52.374;9.916;2022-10-16T12:23:19;51.59;40.58;72.38;;
71628;Laerm;59477;52.374;9.916;2022-10-16T12:25:32;51.74;43.85;60.70;;
71628;Laerm;59477;52.374;9.916;2022-10-16T12:27:33;47.25;40.25;62.69;;
71628;Laerm;59477;52.374;9.916;2022-10-16T12:29:40;49.63;40.27;70.51;;
71628;Laerm;59477;52.374;9.916;2022-10-16T12:31:43;49.33;44.22;54.88;;
71628;Laerm;59477;52.374;9.916;2022-10-16T12:35:55;44.84;38.07;61.95;;
71628;Laerm;59477;52.374;9.916;2022-10-16T12:38:12;51.11;39.53;72.63;;
71628;Laerm;59477;52.374;9.916;2022-10-16T12:44:26;45.48;40.42;59.73;;
71628;Laerm;59477;52.374;9.916;2022-10-16T12:46:35;46.93;41.11;52.66;;
71628;Laerm;59477;52.374;9.916;2022-10-16T12:48:37;47.96;41.47;54.31;;
71628;Laerm;59477;52.374;9.916;2022-10-16T12:50:39;47.07;41.43;53.29;;